sensor_id;sensor_type;location;lat;lon;timestamp;pressure;altitude;pressure_sealevel;temperature;humidity
11172;BME280;5642;50.830;12.082;2022-12-05T00:01:36;99347.16;;;8.64;51.15
11172;BME280;5642;50.830;12.082;2022-12-05T00:04:08;99339.38;;;8.61;51.58
11172;BME280;5642;50.830;12.082;2022-12-05T00:06:36;99340.06;;;8.68;51.82
11172;BME280;5642;50.830;12.082;2022-12-05T00:09:04;99343.53;;;8.70;51.75
11172;BME280;5642;50.830;12.082;2022-12-05T00:11:33;99336.50;;;8.72;51.22
11172;BME280;5642;50.830;12.082;2022-12-05T00:14:04;99333.94;;;8.71;51.22
11172;BME280;5642;50.830;12.082;2022-12-05T00:16:36;99332.09;;;8.74;51.12
11172;BME280;5642;50.830;12.082;2022-12-05T00:19:05;99334.69;;;8.74;51.23
11172;BME280;5642;50.830;12.082;2022-12-05T00:21:34;99329.59;;;8.70;51.42
11172;BME280;5642;50.830;12.082;2022-12-05T00:24:06;99343.53;;;8.70;51.08
11172;BME280;5642;50.830;12.082;2022-12-05T00:26:36;99330.78;;;8.58;51.46
11172;BME280;5642;50.830;12.082;2022-12-05T00:29:03;99346.41;;;8.59;51.19
11172;BME280;5642;50.830;12.082;2022-12-05T00:31:29;99347.25;;;8.60;51.95
11172;BME280;5642;50.830;12.082;2022-12-05T00:33:59;99336.03;;;8.56;51.48
11172;BME280;5642;50.830;12.082;2022-12-05T00:36:30;99329.31;;;8.46;51.66
11172;BME280;5642;50.830;12.082;2022-12-05T00:38:58;99342.13;;;8.57;51.96
11172;BME280;5642;50.830;12.082;2022-12-05T00:41:30;99342.16;;;8.55;52.06
11172;BME280;5642;50.830;12.082;2022-12-05T00:44:00;99321.59;;;8.42;52.05
11172;BME280;5642;50.830;12.082;2022-12-05T00:46:30;99342.34;;;8.46;51.55
11172;BME280;5642;50.830;12.082;2022-12-05T00:49:00;99342.44;;;8.43;51.62
11172;BME280;5642;50.830;12.082;2022-12-05T00:51:31;99345.97;;;8.41;52.08
11172;BME280;5642;50.830;12.082;2022-12-05T00:53:59;99339.22;;;8.32;51.55
11172;BME280;5642;50.830;12.082;2022-12-05T00:56:30;99344.50;;;8.29;51.91
11172;BME280;5642;50.830;12.082;2022-12-05T00:59:04;99343.66;;;8.27;52.01
11172;BME280;5642;50.830;12.082;2022-12-05T01:01:37;99341.88;;;8.29;52.05
11172;BME280;5642;50.830;12.082;2022-12-05T01:04:06;99342.69;;;8.33;52.36
11172;BME280;5642;50.830;12.082;2022-12-05T01:06:33;99347.91;;;8.33;52.35
11172;BME280;5642;50.830;12.082;2022-12-05T01:08:59;99349.63;;;8.34;52.23
11172;BME280;5642;50.830;12.082;2022-12-05T01:11:26;99347.09;;;8.31;51.81
11172;BME280;5642;50.830;12.082;2022-12-05T01:13:54;99348.81;;;8.30;51.95
11172;BME280;5642;50.830;12.082;2022-12-05T01:16:29;99342.91;;;8.22;52.14
11172;BME280;5642;50.830;12.082;2022-12-05T01:18:57;99361.00;;;8.31;52.09
11172;BME280;5642;50.830;12.082;2022-12-05T01:21:25;99354.84;;;8.34;51.75
11172;BME280;5642;50.830;12.082;2022-12-05T01:23:51;99344.44;;;8.32;51.95
11172;BME280;5642;50.830;12.082;2022-12-05T01:26:19;99340.13;;;8.30;51.89
11172;BME280;5642;50.830;12.082;2022-12-05T01:28:46;99362.50;;;8.41;51.75
11172;BME280;5642;50.830;12.082;2022-12-05T01:33:48;99372.88;;;8.44;51.57
11172;BME280;5642;50.830;12.082;2022-12-05T01:36:14;99372.06;;;8.42;51.67
11172;BME280;5642;50.830;12.082;2022-12-05T01:38:41;99380.78;;;8.40;51.84
11172;BME280;5642;50.830;12.082;2022-12-05T01:41:11;99380.94;;;8.34;51.82
11172;BME280;5642;50.830;12.082;2022-12-05T01:46:38;99384.81;;;8.16;52.16
11172;BME280;5642;50.830;12.082;2022-12-05T01:49:24;99341.06;;;7.89;51.67
11172;BME280;5642;50.830;12.082;2022-12-05T01:51:57;99389.19;;;8.14;51.68
11172;BME280;5642;50.830;12.082;2022-12-05T01:54:24;99396.16;;;8.13;52.19
11172;BME280;5642;50.830;12.082;2022-12-05T01:57:00;99396.16;;;8.13;52.07
11172;BME280;5642;50.830;12.082;2022-12-05T01:59:32;99385.13;;;8.02;51.95
11172;BME280;5642;50.830;12.082;2022-12-05T02:02:00;99387.66;;;8.04;52.36
11172;BME280;5642;50.830;12.082;2022-12-05T02:04:27;99391.09;;;8.07;52.40
11172;BME280;5642;50.830;12.082;2022-12-05T02:06:53;99388.34;;;8.13;52.15
11172;BME280;5642;50.830;12.082;2022-12-05T02:09:20;99379.75;;;8.08;52.18
11172;BME280;5642;50.830;12.082;2022-12-05T02:11:53;99396.00;;;8.21;51.90
11172;BME280;5642;50.830;12.082;2022-12-05T02:17:16;99394.94;;;8.31;51.63
11172;BME280;5642;50.830;12.082;2022-12-05T02:20:17;99389.63;;;8.34;51.36
11172;BME280;5642;50.830;12.082;2022-12-05T02:34:09;99392.19;;;8.37;51.63
11172;BME280;5642;50.830;12.082;2022-12-05T02:36:43;99401.75;;;8.38;52.03
11172;BME280;5642;50.830;12.082;2022-12-05T02:44:59;99402.53;;;8.40;51.60
11172;BME280;5642;50.830;12.082;2022-12-05T02:47:30;99398.19;;;8.41;51.66
11172;BME280;5642;50.830;12.082;2022-12-05T02:49:58;99384.28;;;8.40;51.89
11172;BME280;5642;50.830;12.082;2022-12-05T02:52:25;99387.88;;;8.35;51.98
11172;BME280;5642;50.830;12.082;2022-12-05T02:54:53;99387.13;;;8.31;52.30
11172;BME280;5642;50.830;12.082;2022-12-05T02:57:21;99398.47;;;8.27;52.18
11172;BME280;5642;50.830;12.082;2022-12-05T02:59:49;99396.75;;;8.24;51.86
11172;BME280;5642;50.830;12.082;2022-12-05T03:02:32;99391.75;;;8.17;51.79
11172;BME280;5642;50.830;12.082;2022-12-05T03:07:39;99388.34;;;8.12;52.08
11172;BME280;5642;50.830;12.082;2022-12-05T03:10:08;99395.19;;;8.17;52.06
11172;BME280;5642;50.830;12.082;2022-12-05T03:12:43;99394.25;;;8.21;52.03
11172;BME280;5642;50.830;12.082;2022-12-05T03:15:17;99390.78;;;8.21;52.24
11172;BME280;5642;50.830;12.082;2022-12-05T03:17:58;99393.44;;;8.18;51.85
11172;BME280;5642;50.830;12.082;2022-12-05T03:20:37;99376.19;;;8.12;52.29
11172;BME280;5642;50.830;12.082;2022-12-05T03:26:11;99389.19;;;8.14;52.00
11172;BME280;5642;50.830;12.082;2022-12-05T03:28:54;99391.00;;;8.10;51.67
11172;BME280;5642;50.830;12.082;2022-12-05T03:31:54;99390.09;;;8.11;52.06
11172;BME280;5642;50.830;12.082;2022-12-05T03:35:06;99384.03;;;8.11;52.28
11172;BME280;5642;50.830;12.082;2022-12-05T03:37:55;99375.31;;;8.12;52.10
11172;BME280;5642;50.830;12.082;2022-12-05T03:40:41;99382.13;;;8.19;51.94
11172;BME280;5642;50.830;12.082;2022-12-05T03:45:47;99382.72;;;8.32;51.87
11172;BME280;5642;50.830;12.082;2022-12-05T03:48:24;99387.75;;;8.39;52.14
11172;BME280;5642;50.830;12.082;2022-12-05T03:50:53;99391.25;;;8.40;52.18
11172;BME280;5642;50.830;12.082;2022-12-05T03:53:28;99391.25;;;8.40;51.38
11172;BME280;5642;50.830;12.082;2022-12-05T03:56:03;99391.25;;;8.40;52.08
11172;BME280;5642;50.830;12.082;2022-12-05T03:58:39;99383.59;;;8.32;51.71
11172;BME280;5642;50.830;12.082;2022-12-05T04:01:10;99399.16;;;8.37;52.08
11172;BME280;5642;50.830;12.082;2022-12-05T04:03:42;99399.94;;;8.40;52.11
11172;BME280;5642;50.830;12.082;2022-12-05T04:06:34;99395.69;;;8.36;52.06
11172;BME280;5642;50.830;12.082;2022-12-05T04:09:15;99406.09;;;8.38;51.83
11172;BME280;5642;50.830;12.082;2022-12-05T04:11:50;99410.47;;;8.36;51.80
11172;BME280;5642;50.830;12.082;2022-12-05T04:14:27;99407.97;;;8.30;51.96
11172;BME280;5642;50.830;12.082;2022-12-05T04:17:01;99409.69;;;8.32;52.12
11172;BME280;5642;50.830;12.082;2022-12-05T04:19:52;99411.25;;;8.39;51.42
11172;BME280;5642;50.830;12.082;2022-12-05T04:22:38;99406.13;;;8.36;51.75
11172;BME280;5642;50.830;12.082;2022-12-05T04:25:08;99410.50;;;8.34;52.18
11172;BME280;5642;50.830;12.082;2022-12-05T04:33:35;99418.34;;;8.34;51.84
11172;BME280;5642;50.830;12.082;2022-12-05T04:36:13;99417.47;;;8.35;52.36
11172;BME280;5642;50.830;12.082;2022-12-05T04:42:01;99434.88;;;8.35;51.56
11172;BME280;5642;50.830;12.082;2022-12-05T04:44:37;99431.38;;;8.36;52.16
11172;BME280;5642;50.830;12.082;2022-12-05T04:47:08;99432.13;;;8.39;51.95
11172;BME280;5642;50.830;12.082;2022-12-05T04:49:37;99445.09;;;8.44;52.05
11172;BME280;5642;50.830;12.082;2022-12-05T04:52:10;99433.81;;;8.43;52.20
11172;BME280;5642;50.830;12.082;2022-12-05T04:54:47;99438.06;;;8.46;52.09
11172;BME280;5642;50.830;12.082;2022-12-05T04:59:44;99421.06;;;8.28;51.57
11172;BME280;5642;50.830;12.082;2022-12-05T05:02:14;99428.81;;;8.33;52.07
11172;BME280;5642;50.830;12.082;2022-12-05T05:04:48;99437.34;;;8.41;52.12
11172;BME280;5642;50.830;12.082;2022-12-05T05:07:17;99419.22;;;8.33;51.85
11172;BME280;5642;50.830;12.082;2022-12-05T05:09:44;99433.88;;;8.39;51.80
11172;BME280;5642;50.830;12.082;2022-12-05T05:12:11;99448.59;;;8.43;52.40
11172;BME280;5642;50.830;12.082;2022-12-05T05:14:37;99439.97;;;8.39;51.74
11172;BME280;5642;50.830;12.082;2022-12-05T05:17:03;99435.59;;;8.41;51.95
11172;BME280;5642;50.830;12.082;2022-12-05T05:19:29;99454.50;;;8.52;51.95
11172;BME280;5642;50.830;12.082;2022-12-05T05:21:58;99444.09;;;8.49;52.29
11172;BME280;5642;50.830;12.082;2022-12-05T05:24:25;99454.44;;;8.54;51.98
11172;BME280;5642;50.830;12.082;2022-12-05T05:26:51;99445.72;;;8.55;52.12
11172;BME280;5642;50.830;12.082;2022-12-05T05:29:18;99460.34;;;8.62;51.54
11172;BME280;5642;50.830;12.082;2022-12-05T05:31:47;99449.16;;;8.57;51.63
11172;BME280;5642;50.830;12.082;2022-12-05T05:34:16;99462.03;;;8.64;51.58
11172;BME280;5642;50.830;12.082;2022-12-05T05:36:49;99459.50;;;8.60;51.62
11172;BME280;5642;50.830;12.082;2022-12-05T05:39:15;99443.22;;;8.50;51.70
11172;BME280;5642;50.830;12.082;2022-12-05T05:41:42;99462.91;;;8.65;51.22
11172;BME280;5642;50.830;12.082;2022-12-05T05:44:09;99465.56;;;8.62;51.83
11172;BME280;5642;50.830;12.082;2022-12-05T05:46:38;99453.50;;;8.56;51.28
11172;BME280;5642;50.830;12.082;2022-12-05T05:49:04;99453.69;;;8.49;51.90
11172;BME280;5642;50.830;12.082;2022-12-05T05:51:31;99451.94;;;8.49;51.83
11172;BME280;5642;50.830;12.082;2022-12-05T05:53:57;99469.06;;;8.61;51.24
11172;BME280;5642;50.830;12.082;2022-12-05T05:56:24;99482.09;;;8.62;51.62
11172;BME280;5642;50.830;12.082;2022-12-05T05:58:55;99445.88;;;8.47;51.86
11172;BME280;5642;50.830;12.082;2022-12-05T06:01:21;99470.75;;;8.63;51.66
11172;BME280;5642;50.830;12.082;2022-12-05T06:03:47;99469.88;;;8.64;51.59
11172;BME280;5642;50.830;12.082;2022-12-05T06:06:15;99473.38;;;8.63;51.78
11172;BME280;5642;50.830;12.082;2022-12-05T06:08:45;99472.47;;;8.64;51.34
11172;BME280;5642;50.830;12.082;2022-12-05T06:11:19;99458.75;;;8.56;51.39
11172;BME280;5642;50.830;12.082;2022-12-05T06:13:46;99473.41;;;8.62;51.46
11172;BME280;5642;50.830;12.082;2022-12-05T06:16:15;99457.00;;;8.55;51.59
11172;BME280;5642;50.830;12.082;2022-12-05T06:18:42;99480.31;;;8.64;51.35
11172;BME280;5642;50.830;12.082;2022-12-05T06:21:09;99477.78;;;8.60;51.47
11172;BME280;5642;50.830;12.082;2022-12-05T06:23:39;99482.13;;;8.61;51.29
11172;BME280;5642;50.830;12.082;2022-12-05T06:26:11;99485.56;;;8.63;51.63
11172;BME280;5642;50.830;12.082;2022-12-05T06:28:39;99481.22;;;8.62;51.64
11172;BME280;5642;50.830;12.082;2022-12-05T06:31:08;99476.91;;;8.61;51.78
11172;BME280;5642;50.830;12.082;2022-12-05T06:33:38;99473.53;;;8.56;51.45
11172;BME280;5642;50.830;12.082;2022-12-05T06:36:23;99484.69;;;8.64;51.27
11172;BME280;5642;50.830;12.082;2022-12-05T06:38:49;99479.56;;;8.59;51.33
11172;BME280;5642;50.830;12.082;2022-12-05T06:41:19;99487.25;;;8.66;51.63
11172;BME280;5642;50.830;12.082;2022-12-05T06:43:48;99458.06;;;8.47;51.49
11172;BME280;5642;50.830;12.082;2022-12-05T06:46:20;99491.63;;;8.65;51.32
11172;BME280;5642;50.830;12.082;2022-12-05T06:48:47;99496.84;;;8.65;51.59
11172;BME280;5642;50.830;12.082;2022-12-05T06:51:15;99497.66;;;8.67;51.88
11172;BME280;5642;50.830;12.082;2022-12-05T06:53:42;99495.97;;;8.64;51.80
11172;BME280;5642;50.830;12.082;2022-12-05T06:56:12;99497.56;;;8.72;51.87
11172;BME280;5642;50.830;12.082;2022-12-05T06:58:46;99498.41;;;8.74;51.59
11172;BME280;5642;50.830;12.082;2022-12-05T07:01:18;99497.47;;;8.75;51.68
11172;BME280;5642;50.830;12.082;2022-12-05T07:04:10;99506.16;;;8.75;52.14
11172;BME280;5642;50.830;12.082;2022-12-05T07:06:37;99495.03;;;8.67;51.67
11172;BME280;5642;50.830;12.082;2022-12-05T07:09:04;99501.09;;;8.69;51.85
11172;BME280;5642;50.830;12.082;2022-12-05T07:11:31;99441.06;;;8.31;51.87
11172;BME280;5642;50.830;12.082;2022-12-05T07:14:00;99501.06;;;8.71;51.73
11172;BME280;5642;50.830;12.082;2022-12-05T07:16:26;99460.66;;;8.48;51.67
11172;BME280;5642;50.830;12.082;2022-12-05T07:18:53;99500.81;;;8.81;51.44
11172;BME280;5642;50.830;12.082;2022-12-05T07:21:19;99493.81;;;8.83;51.73
11172;BME280;5642;50.830;12.082;2022-12-05T07:23:47;99511.16;;;8.86;52.01
11172;BME280;5642;50.830;12.082;2022-12-05T07:26:25;99505.06;;;8.87;51.88
11172;BME280;5642;50.830;12.082;2022-12-05T07:28:54;99496.25;;;8.91;51.78
11172;BME280;5642;50.830;12.082;2022-12-05T07:31:21;99506.56;;;8.95;51.81
11172;BME280;5642;50.830;12.082;2022-12-05T07:33:48;99495.22;;;8.96;51.38
11172;BME280;5642;50.830;12.082;2022-12-05T07:36:20;99503.84;;;9.01;51.76
11172;BME280;5642;50.830;12.082;2022-12-05T07:38:54;99494.19;;;9.03;51.72
11172;BME280;5642;50.830;12.082;2022-12-05T07:41:22;99502.09;;;9.02;51.38
11172;BME280;5642;50.830;12.082;2022-12-05T07:43:51;99445.41;;;8.67;51.49
11172;BME280;5642;50.830;12.082;2022-12-05T07:46:17;99452.31;;;8.71;51.35
11172;BME280;5642;50.830;12.082;2022-12-05T07:48:48;99485.94;;;8.85;52.13
11172;BME280;5642;50.830;12.082;2022-12-05T07:51:14;99468.03;;;8.68;51.78
11172;BME280;5642;50.830;12.082;2022-12-05T07:53:40;99492.31;;;8.73;52.32
11172;BME280;5642;50.830;12.082;2022-12-05T07:56:10;99517.25;;;8.86;52.13
11172;BME280;5642;50.830;12.082;2022-12-05T07:58:39;99520.72;;;8.87;51.99
11172;BME280;5642;50.830;12.082;2022-12-05T08:01:10;99512.03;;;8.86;51.97
11172;BME280;5642;50.830;12.082;2022-12-05T08:03:37;99513.66;;;8.90;52.17
11172;BME280;5642;50.830;12.082;2022-12-05T08:06:05;99523.91;;;8.99;52.16
11172;BME280;5642;50.830;12.082;2022-12-05T08:08:32;99514.41;;;8.95;52.03
11172;BME280;5642;50.830;12.082;2022-12-05T08:11:05;99497.97;;;8.92;51.71
11172;BME280;5642;50.830;12.082;2022-12-05T08:13:33;99497.06;;;8.93;51.94
11172;BME280;5642;50.830;12.082;2022-12-05T08:16:04;99461.06;;;8.69;52.12
11172;BME280;5642;50.830;12.082;2022-12-05T08:18:33;99448.97;;;8.64;52.27
11172;BME280;5642;50.830;12.082;2022-12-05T08:21:07;99522.75;;;9.11;51.76
11172;BME280;5642;50.830;12.082;2022-12-05T08:23:35;99452.31;;;8.71;52.04
11172;BME280;5642;50.830;12.082;2022-12-05T08:26:17;99533.72;;;9.25;51.93
11172;BME280;5642;50.830;12.082;2022-12-05T08:28:46;99539.78;;;9.27;51.82
11172;BME280;5642;50.830;12.082;2022-12-05T08:31:15;99534.50;;;9.30;51.67
11172;BME280;5642;50.830;12.082;2022-12-05T08:33:41;99534.56;;;9.27;51.69
11172;BME280;5642;50.830;12.082;2022-12-05T08:36:11;99537.03;;;9.33;51.87
11172;BME280;5642;50.830;12.082;2022-12-05T08:38:39;99530.22;;;9.26;51.98
11172;BME280;5642;50.830;12.082;2022-12-05T08:41:11;99550.81;;;9.38;51.51
11172;BME280;5642;50.830;12.082;2022-12-05T08:43:38;99540.53;;;9.32;51.62
11172;BME280;5642;50.830;12.082;2022-12-05T08:46:05;99554.25;;;9.42;51.31
11172;BME280;5642;50.830;12.082;2022-12-05T08:48:31;99523.97;;;9.32;51.53
11172;BME280;5642;50.830;12.082;2022-12-05T08:51:06;99549.75;;;9.47;51.82
11172;BME280;5642;50.830;12.082;2022-12-05T08:53:37;99539.44;;;9.41;51.50
11172;BME280;5642;50.830;12.082;2022-12-05T08:56:08;99547.88;;;9.52;51.68
11172;BME280;5642;50.830;12.082;2022-12-05T08:58:35;99547.94;;;9.51;51.60
11172;BME280;5642;50.830;12.082;2022-12-05T09:01:11;99555.66;;;9.55;51.79
11172;BME280;5642;50.830;12.082;2022-12-05T09:03:38;99559.97;;;9.58;51.73
11172;BME280;5642;50.830;12.082;2022-12-05T09:08:38;99547.94;;;9.51;51.71
11172;BME280;5642;50.830;12.082;2022-12-05T09:11:10;99566.94;;;9.57;51.79
11172;BME280;5642;50.830;12.082;2022-12-05T09:13:40;99568.66;;;9.58;51.88
11172;BME280;5642;50.830;12.082;2022-12-05T09:16:08;99573.03;;;9.58;52.01
11172;BME280;5642;50.830;12.082;2022-12-05T09:18:35;99574.50;;;9.68;51.73
11172;BME280;5642;50.830;12.082;2022-12-05T09:21:06;99584.03;;;9.70;52.01
11172;BME280;5642;50.830;12.082;2022-12-05T09:23:34;99551.22;;;9.59;51.65
11172;BME280;5642;50.830;12.082;2022-12-05T09:26:00;99515.22;;;9.34;51.43
11172;BME280;5642;50.830;12.082;2022-12-05T09:28:28;99594.31;;;9.78;51.35
11172;BME280;5642;50.830;12.082;2022-12-05T09:30:59;99593.41;;;9.79;51.67
11172;BME280;5642;50.830;12.082;2022-12-05T09:33:30;99612.63;;;9.78;51.64
11172;BME280;5642;50.830;12.082;2022-12-05T09:35:56;99602.16;;;9.78;51.48
11172;BME280;5642;50.830;12.082;2022-12-05T09:38:23;99603.88;;;9.79;51.57
11172;BME280;5642;50.830;12.082;2022-12-05T09:40:55;99584.94;;;9.69;51.51
11172;BME280;5642;50.830;12.082;2022-12-05T09:43:34;99576.31;;;9.66;51.69
11172;BME280;5642;50.830;12.082;2022-12-05T09:49:07;99601.72;;;9.61;51.88
11172;BME280;5642;50.830;12.082;2022-12-05T09:51:42;99611.91;;;9.71;51.64
11172;BME280;5642;50.830;12.082;2022-12-05T09:54:10;99552.50;;;9.42;51.99
11172;BME280;5642;50.830;12.082;2022-12-05T09:56:38;99577.44;;;9.56;51.78
11172;BME280;5642;50.830;12.082;2022-12-05T09:59:14;99568.59;;;9.60;51.60
11172;BME280;5642;50.830;12.082;2022-12-05T10:04:24;99600.97;;;9.90;51.80
11172;BME280;5642;50.830;12.082;2022-12-05T10:17:39;99565.34;;;9.86;51.94
11172;BME280;5642;50.830;12.082;2022-12-05T10:20:18;99568.66;;;9.92;51.73
11172;BME280;5642;50.830;12.082;2022-12-05T10:22:53;99585.69;;;10.08;51.95
11172;BME280;5642;50.830;12.082;2022-12-05T10:25:26;99587.38;;;10.09;51.71
11172;BME280;5642;50.830;12.082;2022-12-05T10:27:59;99560.91;;;9.88;51.88
11172;BME280;5642;50.830;12.082;2022-12-05T10:30:32;99588.56;;;9.98;51.89
11172;BME280;5642;50.830;12.082;2022-12-05T10:33:10;99592.06;;;9.97;51.95
11172;BME280;5642;50.830;12.082;2022-12-05T10:35:39;99534.56;;;9.61;52.16
11172;BME280;5642;50.830;12.082;2022-12-05T10:38:11;99594.47;;;10.06;52.09
11172;BME280;5642;50.830;12.082;2022-12-05T10:40:41;99594.31;;;10.10;52.21
11172;BME280;5642;50.830;12.082;2022-12-05T10:43:13;99582.09;;;10.11;52.15
11172;BME280;5642;50.830;12.082;2022-12-05T10:45:46;99590.50;;;10.24;51.85
11172;BME280;5642;50.830;12.082;2022-12-05T10:48:19;99590.41;;;10.28;51.78
11172;BME280;5642;50.830;12.082;2022-12-05T10:50:52;99593.81;;;10.30;51.72
11172;BME280;5642;50.830;12.082;2022-12-05T10:53:24;99591.25;;;10.29;51.83
11172;BME280;5642;50.830;12.082;2022-12-05T10:55:51;99594.66;;;10.31;51.75
11172;BME280;5642;50.830;12.082;2022-12-05T10:58:19;99568.84;;;10.18;51.82
11172;BME280;5642;50.830;12.082;2022-12-05T11:01:08;99576.56;;;10.23;51.72
11172;BME280;5642;50.830;12.082;2022-12-05T11:03:37;99573.88;;;10.26;51.74
11172;BME280;5642;50.830;12.082;2022-12-05T11:06:17;99590.09;;;10.39;51.67
11172;BME280;5642;50.830;12.082;2022-12-05T11:08:51;99578.06;;;10.32;51.81
11172;BME280;5642;50.830;12.082;2022-12-05T11:14:37;99577.88;;;10.38;52.03
11172;BME280;5642;50.830;12.082;2022-12-05T11:17:04;99579.53;;;10.42;52.00
11172;BME280;5642;50.830;12.082;2022-12-05T11:19:33;99540.66;;;10.28;52.03
11172;BME280;5642;50.830;12.082;2022-12-05T11:21:59;99579.16;;;10.55;51.61
11172;BME280;5642;50.830;12.082;2022-12-05T11:24:34;99583.34;;;10.61;51.67
11172;BME280;5642;50.830;12.082;2022-12-05T11:27:29;99520.75;;;10.23;51.37
11172;BME280;5642;50.830;12.082;2022-12-05T11:32:39;99582.81;;;10.50;51.58
11172;BME280;5642;50.830;12.082;2022-12-05T11:37:44;99575.84;;;10.49;51.56
11172;BME280;5642;50.830;12.082;2022-12-05T11:45:52;99582.81;;;10.50;51.37
11172;BME280;5642;50.830;12.082;2022-12-05T11:51:33;99582.03;;;10.46;51.38
11172;BME280;5642;50.830;12.082;2022-12-05T11:57:01;99579.81;;;10.31;51.44
11172;BME280;5642;50.830;12.082;2022-12-05T12:08:20;99594.53;;;10.37;51.57
11172;BME280;5642;50.830;12.082;2022-12-05T12:11:03;99595.28;;;10.40;51.57
11172;BME280;5642;50.830;12.082;2022-12-05T12:16:57;99589.91;;;10.45;51.58
11172;BME280;5642;50.830;12.082;2022-12-05T12:27:51;99588.63;;;10.59;51.36
11172;BME280;5642;50.830;12.082;2022-12-05T12:30:44;99586.06;;;10.58;51.40
11172;BME280;5642;50.830;12.082;2022-12-05T12:36:17;99594.44;;;10.40;51.35
11172;BME280;5642;50.830;12.082;2022-12-05T12:39:02;99598.94;;;10.35;51.63
11172;BME280;5642;50.830;12.082;2022-12-05T12:50:21;99606.19;;;10.25;51.91
11172;BME280;5642;50.830;12.082;2022-12-05T13:01:28;99589.25;;;10.04;52.08
11172;BME280;5642;50.830;12.082;2022-12-05T13:04:07;99586.78;;;10.00;52.11
11172;BME280;5642;50.830;12.082;2022-12-05T13:06:45;99589.22;;;10.06;52.37
11172;BME280;5642;50.830;12.082;2022-12-05T13:09:25;99592.56;;;10.11;52.15
11172;BME280;5642;50.830;12.082;2022-12-05T13:11:55;99586.31;;;10.16;52.03
11172;BME280;5642;50.830;12.082;2022-12-05T13:14:24;99587.00;;;10.25;51.96
11172;BME280;5642;50.830;12.082;2022-12-05T13:16:53;99590.38;;;10.30;51.94
11172;BME280;5642;50.830;12.082;2022-12-05T13:19:28;99580.91;;;10.24;51.80
11172;BME280;5642;50.830;12.082;2022-12-05T13:21:56;99562.84;;;10.13;51.83
11172;BME280;5642;50.830;12.082;2022-12-05T13:24:27;99589.50;;;10.29;51.95
11172;BME280;5642;50.830;12.082;2022-12-05T13:26:57;99591.16;;;10.32;51.89
11172;BME280;5642;50.830;12.082;2022-12-05T13:29:33;99579.06;;;10.28;51.92
11172;BME280;5642;50.830;12.082;2022-12-05T13:32:02;99590.25;;;10.33;51.98
11172;BME280;5642;50.830;12.082;2022-12-05T13:34:35;99594.56;;;10.35;51.97
11172;BME280;5642;50.830;12.082;2022-12-05T13:37:23;99600.63;;;10.37;51.97
11172;BME280;5642;50.830;12.082;2022-12-05T13:40:24;99597.91;;;10.40;51.95
11172;BME280;5642;50.830;12.082;2022-12-05T13:43:12;99584.00;;;10.38;52.15
11172;BME280;5642;50.830;12.082;2022-12-05T13:45:41;99595.91;;;10.50;51.91
11172;BME280;5642;50.830;12.082;2022-12-05T13:48:21;99591.38;;;10.55;51.72
11172;BME280;5642;50.830;12.082;2022-12-05T13:53:37;99590.22;;;10.65;51.77
11172;BME280;5642;50.830;12.082;2022-12-05T13:58:46;99577.28;;;10.59;51.52
11172;BME280;5642;50.830;12.082;2022-12-05T14:03:56;99580.66;;;10.64;51.55
11172;BME280;5642;50.830;12.082;2022-12-05T14:20:21;99585.88;;;10.64;51.52
11172;BME280;5642;50.830;12.082;2022-12-05T14:23:22;99587.75;;;10.59;51.46
11172;BME280;5642;50.830;12.082;2022-12-05T14:34:34;99577.09;;;10.36;51.36
11172;BME280;5642;50.830;12.082;2022-12-05T14:37:24;99586.75;;;10.34;51.38
11172;BME280;5642;50.830;12.082;2022-12-05T14:39:58;99591.19;;;10.30;51.18
11172;BME280;5642;50.830;12.082;2022-12-05T14:42:36;99587.00;;;10.25;50.90
11172;BME280;5642;50.830;12.082;2022-12-05T14:45:27;99585.38;;;10.20;51.24
11172;BME280;5642;50.830;12.082;2022-12-05T14:47:59;99578.66;;;10.09;51.23
11172;BME280;5642;50.830;12.082;2022-12-05T14:50:39;99584.69;;;10.12;51.20
11172;BME280;5642;50.830;12.082;2022-12-05T14:53:22;99585.72;;;10.07;50.90
11172;BME280;5642;50.830;12.082;2022-12-05T15:01:34;99570.53;;;9.87;51.08
11172;BME280;5642;50.830;12.082;2022-12-05T15:06:49;99587.88;;;9.91;51.41
11172;BME280;5642;50.830;12.082;2022-12-05T15:11:54;99568.16;;;9.78;51.52
11172;BME280;5642;50.830;12.082;2022-12-05T15:14:22;99587.13;;;9.86;51.32
11172;BME280;5642;50.830;12.082;2022-12-05T15:16:52;99580.19;;;9.85;51.22
11172;BME280;5642;50.830;12.082;2022-12-05T15:20:16;99579.28;;;9.86;51.49
11172;BME280;5642;50.830;12.082;2022-12-05T15:22:20;99583.72;;;9.82;51.56
11172;BME280;5642;50.830;12.082;2022-12-05T15:24:48;99575.88;;;9.82;51.29
11172;BME280;5642;50.830;12.082;2022-12-05T15:27:15;99573.34;;;9.79;51.23
11172;BME280;5642;50.830;12.082;2022-12-05T15:29:42;99582.00;;;9.81;51.40
11172;BME280;5642;50.830;12.082;2022-12-05T15:40:16;99576.09;;;9.73;51.57
11172;BME280;5642;50.830;12.082;2022-12-05T15:42:52;99596.03;;;9.79;51.25
11172;BME280;5642;50.830;12.082;2022-12-05T15:45:26;99576.97;;;9.74;51.19
11172;BME280;5642;50.830;12.082;2022-12-05T15:50:45;99590.84;;;9.77;51.31
11172;BME280;5642;50.830;12.082;2022-12-05T15:53:32;99592.63;;;9.75;51.37
11172;BME280;5642;50.830;12.082;2022-12-05T15:56:09;99591.84;;;9.72;51.38
11172;BME280;5642;50.830;12.082;2022-12-05T15:58:44;99571.31;;;9.57;51.56
11172;BME280;5642;50.830;12.082;2022-12-05T16:01:26;99592.06;;;9.63;51.39
11172;BME280;5642;50.830;12.082;2022-12-05T16:04:02;99572.41;;;9.47;51.34
11172;BME280;5642;50.830;12.082;2022-12-05T16:06:36;99534.75;;;9.20;51.25
11172;BME280;5642;50.830;12.082;2022-12-05T16:09:08;99616.53;;;9.60;51.39
11172;BME280;5642;50.830;12.082;2022-12-05T16:11:38;99618.44;;;9.54;51.50
11172;BME280;5642;50.830;12.082;2022-12-05T16:14:05;99622.03;;;9.50;51.43
11172;BME280;5642;50.830;12.082;2022-12-05T16:16:34;99626.22;;;9.57;51.10
11172;BME280;5642;50.830;12.082;2022-12-05T16:19:16;99625.38;;;9.56;51.31
11172;BME280;5642;50.830;12.082;2022-12-05T16:22:01;99631.47;;;9.57;51.54
11172;BME280;5642;50.830;12.082;2022-12-05T16:24:38;99638.44;;;9.56;51.54
11172;BME280;5642;50.830;12.082;2022-12-05T16:27:14;99634.06;;;9.57;51.16
11172;BME280;5642;50.830;12.082;2022-12-05T16:29:41;99639.34;;;9.55;51.25
11172;BME280;5642;50.830;12.082;2022-12-05T16:32:35;99637.63;;;9.54;51.42
11172;BME280;5642;50.830;12.082;2022-12-05T16:35:03;99641.13;;;9.53;51.39